sensor_id;sensor_type;location;lat;lon;timestamp;P1;durP1;ratioP1;P2;durP2;ratioP2
64598;SDS011;51008;51.504;11.548;2024-02-04T00:02:10;15.93;;;8.82;;
64598;SDS011;51008;51.504;11.548;2024-02-04T00:07:11;16.30;;;9.10;;
64598;SDS011;51008;51.504;11.548;2024-02-04T00:12:12;16.02;;;9.13;;
64598;SDS011;51008;51.504;11.548;2024-02-04T00:17:13;12.82;;;8.02;;
64598;SDS011;51008;51.504;11.548;2024-02-04T00:22:14;13.23;;;8.15;;
64598;SDS011;51008;51.504;11.548;2024-02-04T00:27:15;16.23;;;7.97;;
64598;SDS011;51008;51.504;11.548;2024-02-04T00:32:16;12.50;;;7.47;;
64598;SDS011;51008;51.504;11.548;2024-02-04T00:37:17;12.90;;;7.85;;
64598;SDS011;51008;51.504;11.548;2024-02-04T00:42:19;18.33;;;9.27;;
64598;SDS011;51008;51.504;11.548;2024-02-04T00:47:20;17.13;;;9.73;;
64598;SDS011;51008;51.504;11.548;2024-02-04T00:52:21;15.77;;;9.38;;
64598;SDS011;51008;51.504;11.548;2024-02-04T00:57:23;18.92;;;10.38;;
64598;SDS011;51008;51.504;11.548;2024-02-04T01:02:24;19.55;;;10.05;;
64598;SDS011;51008;51.504;11.548;2024-02-04T01:07:44;16.75;;;9.43;;
64598;SDS011;51008;51.504;11.548;2024-02-04T01:12:45;20.95;;;10.18;;
64598;SDS011;51008;51.504;11.548;2024-02-04T01:17:46;18.70;;;9.90;;
64598;SDS011;51008;51.504;11.548;2024-02-04T01:22:50;18.48;;;10.07;;
64598;SDS011;51008;51.504;11.548;2024-02-04T01:28:01;22.13;;;10.77;;
64598;SDS011;51008;51.504;11.548;2024-02-04T01:33:17;18.58;;;10.35;;
64598;SDS011;51008;51.504;11.548;2024-02-04T01:38:18;19.77;;;9.65;;
64598;SDS011;51008;51.504;11.548;2024-02-04T01:43:38;22.30;;;11.05;;
64598;SDS011;51008;51.504;11.548;2024-02-04T01:48:40;28.35;;;11.68;;
64598;SDS011;51008;51.504;11.548;2024-02-04T01:53:41;27.25;;;12.45;;
64598;SDS011;51008;51.504;11.548;2024-02-04T01:58:45;25.10;;;11.60;;
64598;SDS011;51008;51.504;11.548;2024-02-04T02:03:46;23.40;;;12.10;;
64598;SDS011;51008;51.504;11.548;2024-02-04T02:08:48;25.60;;;12.48;;
64598;SDS011;51008;51.504;11.548;2024-02-04T02:13:52;29.65;;;12.57;;
64598;SDS011;51008;51.504;11.548;2024-02-04T02:19:09;27.88;;;12.82;;
64598;SDS011;51008;51.504;11.548;2024-02-04T02:29:32;31.90;;;12.85;;
64598;SDS011;51008;51.504;11.548;2024-02-04T02:34:33;35.30;;;14.15;;
64598;SDS011;51008;51.504;11.548;2024-02-04T02:39:36;27.95;;;12.63;;
64598;SDS011;51008;51.504;11.548;2024-02-04T02:44:43;27.50;;;12.98;;
64598;SDS011;51008;51.504;11.548;2024-02-04T02:49:44;26.42;;;11.85;;
64598;SDS011;51008;51.504;11.548;2024-02-04T02:54:46;21.95;;;11.50;;
64598;SDS011;51008;51.504;11.548;2024-02-04T02:59:47;23.48;;;11.90;;
64598;SDS011;51008;51.504;11.548;2024-02-04T03:04:48;24.40;;;12.55;;
64598;SDS011;51008;51.504;11.548;2024-02-04T03:09:49;25.52;;;11.27;;
64598;SDS011;51008;51.504;11.548;2024-02-04T03:14:50;21.55;;;11.00;;
64598;SDS011;51008;51.504;11.548;2024-02-04T03:19:51;24.23;;;10.65;;
64598;SDS011;51008;51.504;11.548;2024-02-04T03:24:52;23.30;;;9.93;;
64598;SDS011;51008;51.504;11.548;2024-02-04T03:29:54;18.85;;;9.57;;
64598;SDS011;51008;51.504;11.548;2024-02-04T03:34:56;17.42;;;8.73;;
64598;SDS011;51008;51.504;11.548;2024-02-04T03:39:57;16.83;;;8.35;;
64598;SDS011;51008;51.504;11.548;2024-02-04T03:44:59;16.00;;;8.50;;
64598;SDS011;51008;51.504;11.548;2024-02-04T03:50:21;14.32;;;8.48;;
64598;SDS011;51008;51.504;11.548;2024-02-04T03:55:22;14.68;;;7.60;;
64598;SDS011;51008;51.504;11.548;2024-02-04T04:00:32;15.02;;;7.50;;
64598;SDS011;51008;51.504;11.548;2024-02-04T04:05:33;13.77;;;7.72;;
64598;SDS011;51008;51.504;11.548;2024-02-04T04:10:34;16.10;;;8.20;;
64598;SDS011;51008;51.504;11.548;2024-02-04T04:15:53;16.00;;;8.48;;
64598;SDS011;51008;51.504;11.548;2024-02-04T04:20:54;18.58;;;8.00;;
64598;SDS011;51008;51.504;11.548;2024-02-04T04:25:55;15.82;;;7.90;;
64598;SDS011;51008;51.504;11.548;2024-02-04T04:30:56;17.13;;;8.43;;
64598;SDS011;51008;51.504;11.548;2024-02-04T04:35:58;21.60;;;8.85;;
64598;SDS011;51008;51.504;11.548;2024-02-04T04:40:59;15.95;;;8.10;;
64598;SDS011;51008;51.504;11.548;2024-02-04T04:46:00;16.85;;;7.72;;
64598;SDS011;51008;51.504;11.548;2024-02-04T04:51:02;14.32;;;7.20;;
64598;SDS011;51008;51.504;11.548;2024-02-04T04:56:03;13.63;;;7.28;;
64598;SDS011;51008;51.504;11.548;2024-02-04T05:01:05;18.60;;;7.43;;
64598;SDS011;51008;51.504;11.548;2024-02-04T05:06:19;14.30;;;7.35;;
64598;SDS011;51008;51.504;11.548;2024-02-04T05:11:20;15.10;;;6.97;;
64598;SDS011;51008;51.504;11.548;2024-02-04T05:16:21;12.75;;;6.70;;
64598;SDS011;51008;51.504;11.548;2024-02-04T05:21:22;18.17;;;7.53;;
64598;SDS011;51008;51.504;11.548;2024-02-04T05:26:23;15.63;;;8.00;;
64598;SDS011;51008;51.504;11.548;2024-02-04T05:31:24;14.82;;;7.72;;
64598;SDS011;51008;51.504;11.548;2024-02-04T05:36:25;14.77;;;7.45;;
64598;SDS011;51008;51.504;11.548;2024-02-04T05:41:44;16.77;;;8.35;;
64598;SDS011;51008;51.504;11.548;2024-02-04T05:46:45;16.02;;;7.88;;
64598;SDS011;51008;51.504;11.548;2024-02-04T05:51:46;12.80;;;6.80;;
64598;SDS011;51008;51.504;11.548;2024-02-04T05:56:48;15.20;;;7.65;;
64598;SDS011;51008;51.504;11.548;2024-02-04T06:01:49;13.63;;;7.57;;
64598;SDS011;51008;51.504;11.548;2024-02-04T06:06:50;14.18;;;7.50;;
64598;SDS011;51008;51.504;11.548;2024-02-04T06:11:51;13.77;;;6.97;;
64598;SDS011;51008;51.504;11.548;2024-02-04T06:17:10;13.90;;;6.97;;
64598;SDS011;51008;51.504;11.548;2024-02-04T06:22:11;10.20;;;6.10;;
64598;SDS011;51008;51.504;11.548;2024-02-04T06:27:12;10.63;;;6.18;;
64598;SDS011;51008;51.504;11.548;2024-02-04T06:32:13;13.43;;;7.95;;
64598;SDS011;51008;51.504;11.548;2024-02-04T06:37:33;12.93;;;6.10;;
64598;SDS011;51008;51.504;11.548;2024-02-04T06:42:34;12.80;;;7.28;;
64598;SDS011;51008;51.504;11.548;2024-02-04T06:47:35;9.63;;;6.15;;
64598;SDS011;51008;51.504;11.548;2024-02-04T06:52:37;10.23;;;5.38;;
64598;SDS011;51008;51.504;11.548;2024-02-04T06:57:38;10.38;;;5.38;;
64598;SDS011;51008;51.504;11.548;2024-02-04T07:02:57;6.70;;;4.50;;
64598;SDS011;51008;51.504;11.548;2024-02-04T07:07:58;7.10;;;4.55;;
64598;SDS011;51008;51.504;11.548;2024-02-04T07:13:00;9.43;;;4.50;;
64598;SDS011;51008;51.504;11.548;2024-02-04T07:18:01;5.82;;;3.72;;
64598;SDS011;51008;51.504;11.548;2024-02-04T07:23:02;9.32;;;4.38;;
64598;SDS011;51008;51.504;11.548;2024-02-04T07:28:03;6.88;;;4.32;;
64598;SDS011;51008;51.504;11.548;2024-02-04T07:33:04;5.70;;;3.58;;
64598;SDS011;51008;51.504;11.548;2024-02-04T07:38:05;5.72;;;3.88;;
64598;SDS011;51008;51.504;11.548;2024-02-04T07:43:06;9.73;;;3.67;;
64598;SDS011;51008;51.504;11.548;2024-02-04T07:48:07;7.43;;;4.25;;
64598;SDS011;51008;51.504;11.548;2024-02-04T07:53:08;5.85;;;4.00;;
64598;SDS011;51008;51.504;11.548;2024-02-04T07:58:09;7.25;;;3.90;;
64598;SDS011;51008;51.504;11.548;2024-02-04T08:03:10;7.72;;;4.18;;
64598;SDS011;51008;51.504;11.548;2024-02-04T08:08:11;7.45;;;4.22;;
64598;SDS011;51008;51.504;11.548;2024-02-04T08:13:12;5.95;;;3.92;;
64598;SDS011;51008;51.504;11.548;2024-02-04T08:18:13;7.35;;;3.75;;
64598;SDS011;51008;51.504;11.548;2024-02-04T08:23:15;5.22;;;3.53;;
64598;SDS011;51008;51.504;11.548;2024-02-04T08:28:16;7.13;;;4.15;;
64598;SDS011;51008;51.504;11.548;2024-02-04T08:33:17;6.55;;;3.78;;
64598;SDS011;51008;51.504;11.548;2024-02-04T08:38:18;6.68;;;3.90;;
64598;SDS011;51008;51.504;11.548;2024-02-04T08:43:37;8.35;;;4.28;;
64598;SDS011;51008;51.504;11.548;2024-02-04T08:48:39;8.13;;;4.28;;
64598;SDS011;51008;51.504;11.548;2024-02-04T08:53:42;8.60;;;4.85;;
64598;SDS011;51008;51.504;11.548;2024-02-04T08:59:02;11.27;;;5.35;;
64598;SDS011;51008;51.504;11.548;2024-02-04T09:04:03;8.38;;;4.40;;
64598;SDS011;51008;51.504;11.548;2024-02-04T09:09:04;14.82;;;6.07;;
64598;SDS011;51008;51.504;11.548;2024-02-04T09:14:05;11.98;;;5.18;;
64598;SDS011;51008;51.504;11.548;2024-02-04T09:19:07;14.07;;;6.32;;
64598;SDS011;51008;51.504;11.548;2024-02-04T09:24:09;12.35;;;5.32;;
64598;SDS011;51008;51.504;11.548;2024-02-04T09:29:10;7.05;;;4.32;;
64598;SDS011;51008;51.504;11.548;2024-02-04T09:34:11;8.05;;;4.00;;
64598;SDS011;51008;51.504;11.548;2024-02-04T09:39:12;6.95;;;4.07;;
64598;SDS011;51008;51.504;11.548;2024-02-04T09:44:32;7.45;;;4.30;;
64598;SDS011;51008;51.504;11.548;2024-02-04T09:49:34;7.72;;;4.82;;
64598;SDS011;51008;51.504;11.548;2024-02-04T09:54:45;10.10;;;5.40;;
64598;SDS011;51008;51.504;11.548;2024-02-04T09:59:50;10.50;;;5.50;;
64598;SDS011;51008;51.504;11.548;2024-02-04T10:04:51;9.80;;;5.60;;
64598;SDS011;51008;51.504;11.548;2024-02-04T10:09:52;8.70;;;5.72;;
64598;SDS011;51008;51.504;11.548;2024-02-04T10:15:12;10.52;;;6.43;;
64598;SDS011;51008;51.504;11.548;2024-02-04T10:20:12;16.63;;;8.85;;
64598;SDS011;51008;51.504;11.548;2024-02-04T10:25:13;11.90;;;6.70;;
64598;SDS011;51008;51.504;11.548;2024-02-04T10:30:14;11.77;;;7.05;;
64598;SDS011;51008;51.504;11.548;2024-02-04T10:35:16;11.55;;;7.07;;
64598;SDS011;51008;51.504;11.548;2024-02-04T10:40:17;13.50;;;7.25;;
64598;SDS011;51008;51.504;11.548;2024-02-04T10:45:18;11.48;;;7.07;;
64598;SDS011;51008;51.504;11.548;2024-02-04T10:50:21;10.82;;;6.03;;
64598;SDS011;51008;51.504;11.548;2024-02-04T10:55:27;10.23;;;6.00;;
64598;SDS011;51008;51.504;11.548;2024-02-04T11:00:31;11.90;;;5.90;;
64598;SDS011;51008;51.504;11.548;2024-02-04T11:05:33;8.18;;;4.78;;
64598;SDS011;51008;51.504;11.548;2024-02-04T11:10:36;7.13;;;5.05;;
64598;SDS011;51008;51.504;11.548;2024-02-04T11:15:40;11.23;;;5.90;;
64598;SDS011;51008;51.504;11.548;2024-02-04T11:26:01;6.78;;;4.25;;
64598;SDS011;51008;51.504;11.548;2024-02-04T11:31:03;6.35;;;4.03;;
64598;SDS011;51008;51.504;11.548;2024-02-04T11:36:04;7.13;;;3.95;;
64598;SDS011;51008;51.504;11.548;2024-02-04T11:41:06;7.25;;;3.83;;
64598;SDS011;51008;51.504;11.548;2024-02-04T11:46:15;4.90;;;3.13;;
64598;SDS011;51008;51.504;11.548;2024-02-04T11:51:17;3.33;;;2.33;;
64598;SDS011;51008;51.504;11.548;2024-02-04T11:56:18;3.33;;;1.92;;
64598;SDS011;51008;51.504;11.548;2024-02-04T12:01:21;3.20;;;1.60;;
64598;SDS011;51008;51.504;11.548;2024-02-04T12:11:24;3.30;;;1.80;;
64598;SDS011;51008;51.504;11.548;2024-02-04T12:16:26;6.60;;;1.70;;
64598;SDS011;51008;51.504;11.548;2024-02-04T12:21:27;4.15;;;1.80;;
64598;SDS011;51008;51.504;11.548;2024-02-04T12:26:28;6.13;;;2.30;;
64598;SDS011;51008;51.504;11.548;2024-02-04T12:31:30;3.72;;;2.20;;
64598;SDS011;51008;51.504;11.548;2024-02-04T12:36:31;6.40;;;3.20;;
64598;SDS011;51008;51.504;11.548;2024-02-04T12:41:32;9.57;;;3.47;;
64598;SDS011;51008;51.504;11.548;2024-02-04T12:46:33;5.57;;;1.77;;
64598;SDS011;51008;51.504;11.548;2024-02-04T12:51:34;2.83;;;1.38;;
64598;SDS011;51008;51.504;11.548;2024-02-04T12:56:48;2.13;;;1.63;;
64598;SDS011;51008;51.504;11.548;2024-02-04T13:01:52;2.97;;;1.45;;
64598;SDS011;51008;51.504;11.548;2024-02-04T13:06:56;5.00;;;1.70;;
64598;SDS011;51008;51.504;11.548;2024-02-04T13:12:03;3.63;;;1.60;;
64598;SDS011;51008;51.504;11.548;2024-02-04T13:17:05;4.28;;;1.90;;
64598;SDS011;51008;51.504;11.548;2024-02-04T13:22:07;2.97;;;1.55;;
64598;SDS011;51008;51.504;11.548;2024-02-04T13:27:08;4.10;;;1.48;;
64598;SDS011;51008;51.504;11.548;2024-02-04T13:32:09;2.88;;;1.20;;
64598;SDS011;51008;51.504;11.548;2024-02-04T13:37:10;1.42;;;0.95;;
64598;SDS011;51008;51.504;11.548;2024-02-04T13:42:11;2.50;;;1.20;;
64598;SDS011;51008;51.504;11.548;2024-02-04T13:47:12;4.50;;;1.40;;
64598;SDS011;51008;51.504;11.548;2024-02-04T13:52:13;1.95;;;1.10;;
64598;SDS011;51008;51.504;11.548;2024-02-04T13:57:14;2.80;;;1.10;;
64598;SDS011;51008;51.504;11.548;2024-02-04T14:02:16;3.17;;;1.40;;
64598;SDS011;51008;51.504;11.548;2024-02-04T14:07:17;2.42;;;1.30;;
64598;SDS011;51008;51.504;11.548;2024-02-04T14:12:18;2.50;;;1.30;;
64598;SDS011;51008;51.504;11.548;2024-02-04T14:17:19;3.80;;;1.50;;
64598;SDS011;51008;51.504;11.548;2024-02-04T14:22:20;4.47;;;1.75;;
64598;SDS011;51008;51.504;11.548;2024-02-04T14:27:22;2.25;;;1.50;;
64598;SDS011;51008;51.504;11.548;2024-02-04T14:32:24;3.08;;;1.75;;
64598;SDS011;51008;51.504;11.548;2024-02-04T14:37:25;3.92;;;1.80;;
64598;SDS011;51008;51.504;11.548;2024-02-04T14:42:29;6.53;;;2.38;;
64598;SDS011;51008;51.504;11.548;2024-02-04T14:47:31;5.07;;;2.25;;
64598;SDS011;51008;51.504;11.548;2024-02-04T14:52:32;4.88;;;2.85;;
64598;SDS011;51008;51.504;11.548;2024-02-04T14:57:33;4.32;;;2.60;;
64598;SDS011;51008;51.504;11.548;2024-02-04T15:02:34;5.15;;;2.75;;
64598;SDS011;51008;51.504;11.548;2024-02-04T15:07:35;4.85;;;2.80;;
64598;SDS011;51008;51.504;11.548;2024-02-04T15:12:37;6.72;;;2.83;;
64598;SDS011;51008;51.504;11.548;2024-02-04T15:17:38;6.13;;;2.80;;
64598;SDS011;51008;51.504;11.548;2024-02-04T15:22:40;4.13;;;2.47;;
64598;SDS011;51008;51.504;11.548;2024-02-04T15:27:41;5.57;;;2.88;;
64598;SDS011;51008;51.504;11.548;2024-02-04T15:33:03;6.15;;;2.50;;
64598;SDS011;51008;51.504;11.548;2024-02-04T15:38:04;8.45;;;3.38;;
64598;SDS011;51008;51.504;11.548;2024-02-04T15:43:05;9.07;;;3.35;;
64598;SDS011;51008;51.504;11.548;2024-02-04T15:48:06;5.45;;;2.85;;
64598;SDS011;51008;51.504;11.548;2024-02-04T15:53:10;12.65;;;3.72;;
64598;SDS011;51008;51.504;11.548;2024-02-04T15:58:12;5.20;;;3.22;;
64598;SDS011;51008;51.504;11.548;2024-02-04T16:03:14;9.07;;;3.30;;
64598;SDS011;51008;51.504;11.548;2024-02-04T16:08:25;5.82;;;3.25;;
64598;SDS011;51008;51.504;11.548;2024-02-04T16:13:26;5.82;;;3.10;;
64598;SDS011;51008;51.504;11.548;2024-02-04T16:18:28;7.05;;;3.67;;
64598;SDS011;51008;51.504;11.548;2024-02-04T16:23:48;7.22;;;3.38;;
64598;SDS011;51008;51.504;11.548;2024-02-04T16:28:49;7.82;;;3.67;;
64598;SDS011;51008;51.504;11.548;2024-02-04T16:33:50;7.13;;;4.00;;
64598;SDS011;51008;51.504;11.548;2024-02-04T16:38:51;10.40;;;4.97;;
64598;SDS011;51008;51.504;11.548;2024-02-04T16:43:53;6.32;;;3.15;;
64598;SDS011;51008;51.504;11.548;2024-02-04T16:48:57;6.78;;;3.20;;
64598;SDS011;51008;51.504;11.548;2024-02-04T16:58:59;4.30;;;2.58;;
64598;SDS011;51008;51.504;11.548;2024-02-04T17:04:00;5.13;;;2.75;;
64598;SDS011;51008;51.504;11.548;2024-02-04T17:09:01;4.05;;;2.63;;
64598;SDS011;51008;51.504;11.548;2024-02-04T17:14:03;4.95;;;2.40;;
64598;SDS011;51008;51.504;11.548;2024-02-04T17:19:18;5.40;;;2.47;;
64598;SDS011;51008;51.504;11.548;2024-02-04T17:24:27;4.85;;;2.70;;
64598;SDS011;51008;51.504;11.548;2024-02-04T17:29:28;4.05;;;2.80;;
64598;SDS011;51008;51.504;11.548;2024-02-04T17:34:30;4.63;;;2.22;;
64598;SDS011;51008;51.504;11.548;2024-02-04T17:39:31;6.45;;;2.58;;
64598;SDS011;51008;51.504;11.548;2024-02-04T17:44:32;3.35;;;2.30;;
64598;SDS011;51008;51.504;11.548;2024-02-04T17:49:33;3.92;;;2.40;;
64598;SDS011;51008;51.504;11.548;2024-02-04T17:54:34;5.90;;;3.40;;
64598;SDS011;51008;51.504;11.548;2024-02-04T17:59:35;7.25;;;3.85;;
64598;SDS011;51008;51.504;11.548;2024-02-04T18:04:36;5.78;;;4.03;;
64598;SDS011;51008;51.504;11.548;2024-02-04T18:09:38;7.20;;;4.60;;
64598;SDS011;51008;51.504;11.548;2024-02-04T18:14:39;6.53;;;3.97;;
64598;SDS011;51008;51.504;11.548;2024-02-04T18:19:40;6.05;;;4.25;;
64598;SDS011;51008;51.504;11.548;2024-02-04T18:24:41;6.88;;;3.90;;
64598;SDS011;51008;51.504;11.548;2024-02-04T18:29:42;7.10;;;3.67;;
64598;SDS011;51008;51.504;11.548;2024-02-04T18:34:43;5.70;;;3.95;;
64598;SDS011;51008;51.504;11.548;2024-02-04T18:39:44;7.28;;;4.38;;
64598;SDS011;51008;51.504;11.548;2024-02-04T18:44:45;6.25;;;4.05;;
64598;SDS011;51008;51.504;11.548;2024-02-04T18:49:46;6.13;;;4.22;;
64598;SDS011;51008;51.504;11.548;2024-02-04T18:54:47;5.60;;;3.72;;
64598;SDS011;51008;51.504;11.548;2024-02-04T18:59:48;3.95;;;2.40;;
64598;SDS011;51008;51.504;11.548;2024-02-04T19:04:49;4.72;;;2.63;;
64598;SDS011;51008;51.504;11.548;2024-02-04T19:09:50;3.75;;;2.05;;
64598;SDS011;51008;51.504;11.548;2024-02-04T19:14:51;2.60;;;1.70;;
64598;SDS011;51008;51.504;11.548;2024-02-04T19:19:52;3.35;;;1.95;;
64598;SDS011;51008;51.504;11.548;2024-02-04T19:24:53;3.72;;;1.73;;
64598;SDS011;51008;51.504;11.548;2024-02-04T19:29:54;9.30;;;2.38;;
64598;SDS011;51008;51.504;11.548;2024-02-04T19:34:55;3.78;;;2.40;;
64598;SDS011;51008;51.504;11.548;2024-02-04T19:39:56;4.82;;;2.03;;
64598;SDS011;51008;51.504;11.548;2024-02-04T19:44:57;3.80;;;2.38;;
64598;SDS011;51008;51.504;11.548;2024-02-04T19:49:58;5.13;;;2.40;;
64598;SDS011;51008;51.504;11.548;2024-02-04T19:54:59;9.50;;;3.00;;
64598;SDS011;51008;51.504;11.548;2024-02-04T20:00:01;5.28;;;3.55;;
64598;SDS011;51008;51.504;11.548;2024-02-04T20:05:11;5.90;;;4.28;;
64598;SDS011;51008;51.504;11.548;2024-02-04T20:10:12;7.43;;;4.90;;
64598;SDS011;51008;51.504;11.548;2024-02-04T20:15:13;7.35;;;4.28;;
64598;SDS011;51008;51.504;11.548;2024-02-04T20:20:14;6.35;;;4.15;;
64598;SDS011;51008;51.504;11.548;2024-02-04T20:25:15;6.82;;;3.88;;
64598;SDS011;51008;51.504;11.548;2024-02-04T20:30:16;6.20;;;3.95;;
64598;SDS011;51008;51.504;11.548;2024-02-04T20:35:17;7.55;;;4.63;;
64598;SDS011;51008;51.504;11.548;2024-02-04T20:40:18;8.00;;;5.03;;
64598;SDS011;51008;51.504;11.548;2024-02-04T20:45:19;7.15;;;4.90;;
64598;SDS011;51008;51.504;11.548;2024-02-04T20:50:20;6.53;;;4.53;;
64598;SDS011;51008;51.504;11.548;2024-02-04T20:55:21;6.97;;;3.83;;
64598;SDS011;51008;51.504;11.548;2024-02-04T21:00:22;7.43;;;4.57;;
64598;SDS011;51008;51.504;11.548;2024-02-04T21:05:24;6.35;;;4.28;;
64598;SDS011;51008;51.504;11.548;2024-02-04T21:10:25;6.28;;;4.15;;
64598;SDS011;51008;51.504;11.548;2024-02-04T21:15:26;6.65;;;3.38;;
64598;SDS011;51008;51.504;11.548;2024-02-04T21:20:27;8.88;;;3.25;;
64598;SDS011;51008;51.504;11.548;2024-02-04T21:25:28;5.38;;;3.35;;
64598;SDS011;51008;51.504;11.548;2024-02-04T21:30:29;4.80;;;3.15;;
64598;SDS011;51008;51.504;11.548;2024-02-04T21:35:30;6.28;;;2.70;;
64598;SDS011;51008;51.504;11.548;2024-02-04T21:40:31;5.43;;;2.92;;
64598;SDS011;51008;51.504;11.548;2024-02-04T21:45:32;4.43;;;2.40;;
64598;SDS011;51008;51.504;11.548;2024-02-04T21:50:53;3.40;;;2.10;;
64598;SDS011;51008;51.504;11.548;2024-02-04T21:56:14;5.57;;;2.55;;
64598;SDS011;51008;51.504;11.548;2024-02-04T22:01:33;2.83;;;1.70;;
64598;SDS011;51008;51.504;11.548;2024-02-04T22:06:54;2.25;;;1.80;;
64598;SDS011;51008;51.504;11.548;2024-02-04T22:11:55;2.50;;;1.60;;
64598;SDS011;51008;51.504;11.548;2024-02-04T22:16:56;4.03;;;1.67;;
64598;SDS011;51008;51.504;11.548;2024-02-04T22:21:58;1.40;;;1.30;;
64598;SDS011;51008;51.504;11.548;2024-02-04T22:26:59;2.78;;;1.40;;
64598;SDS011;51008;51.504;11.548;2024-02-04T22:32:01;1.70;;;1.40;;
64598;SDS011;51008;51.504;11.548;2024-02-04T22:37:02;1.60;;;1.10;;
64598;SDS011;51008;51.504;11.548;2024-02-04T22:42:21;2.00;;;1.35;;
64598;SDS011;51008;51.504;11.548;2024-02-04T22:47:22;1.50;;;1.40;;
64598;SDS011;51008;51.504;11.548;2024-02-04T22:52:24;1.25;;;1.15;;
64598;SDS011;51008;51.504;11.548;2024-02-04T22:57:25;1.98;;;1.10;;
64598;SDS011;51008;51.504;11.548;2024-02-04T23:02:26;3.53;;;1.45;;
64598;SDS011;51008;51.504;11.548;2024-02-04T23:07:27;0.80;;;0.80;;
64598;SDS011;51008;51.504;11.548;2024-02-04T23:12:28;1.70;;;0.80;;
64598;SDS011;51008;51.504;11.548;2024-02-04T23:17:30;2.05;;;1.00;;
64598;SDS011;51008;51.504;11.548;2024-02-04T23:22:31;0.70;;;0.70;;
64598;SDS011;51008;51.504;11.548;2024-02-04T23:27:32;0.88;;;0.85;;
64598;SDS011;51008;51.504;11.548;2024-02-04T23:32:33;0.80;;;0.75;;
64598;SDS011;51008;51.504;11.548;2024-02-04T23:37:34;1.75;;;0.90;;
64598;SDS011;51008;51.504;11.548;2024-02-04T23:42:35;0.82;;;0.73;;
64598;SDS011;51008;51.504;11.548;2024-02-04T23:47:36;1.58;;;1.00;;
64598;SDS011;51008;51.504;11.548;2024-02-04T23:52:37;2.92;;;1.08;;
64598;SDS011;51008;51.504;11.548;2024-02-04T23:57:38;1.35;;;0.80;;
